sensor_id;sensor_type;location;lat;lon;timestamp;P1;durP1;ratioP1;P2;durP2;ratioP2
11620;SDS011;5866;49.094;11.900;2023-05-29T00:02:10;9.18;;;4.95;;
11620;SDS011;5866;49.094;11.900;2023-05-29T00:04:39;6.63;;;4.18;;
11620;SDS011;5866;49.094;11.900;2023-05-29T00:07:07;4.53;;;4.03;;
11620;SDS011;5866;49.094;11.900;2023-05-29T00:09:34;5.50;;;4.13;;
11620;SDS011;5866;49.094;11.900;2023-05-29T00:12:02;6.28;;;4.13;;
11620;SDS011;5866;49.094;11.900;2023-05-29T00:14:30;5.30;;;4.00;;
11620;SDS011;5866;49.094;11.900;2023-05-29T00:16:57;7.72;;;4.43;;
11620;SDS011;5866;49.094;11.900;2023-05-29T00:19:25;5.45;;;4.15;;
11620;SDS011;5866;49.094;11.900;2023-05-29T00:21:54;9.65;;;4.00;;
11620;SDS011;5866;49.094;11.900;2023-05-29T00:24:22;7.32;;;4.32;;
11620;SDS011;5866;49.094;11.900;2023-05-29T00:26:49;7.20;;;4.50;;
11620;SDS011;5866;49.094;11.900;2023-05-29T00:29:17;4.63;;;4.15;;
11620;SDS011;5866;49.094;11.900;2023-05-29T00:31:45;6.55;;;3.78;;
11620;SDS011;5866;49.094;11.900;2023-05-29T00:34:12;5.25;;;4.38;;
11620;SDS011;5866;49.094;11.900;2023-05-29T00:36:40;4.97;;;3.97;;
11620;SDS011;5866;49.094;11.900;2023-05-29T00:39:09;6.10;;;4.05;;
11620;SDS011;5866;49.094;11.900;2023-05-29T00:41:36;5.07;;;4.05;;
11620;SDS011;5866;49.094;11.900;2023-05-29T00:44:04;5.75;;;4.38;;
11620;SDS011;5866;49.094;11.900;2023-05-29T00:46:32;7.10;;;4.15;;
11620;SDS011;5866;49.094;11.900;2023-05-29T00:49:01;5.53;;;4.60;;
11620;SDS011;5866;49.094;11.900;2023-05-29T00:51:30;4.47;;;3.90;;
11620;SDS011;5866;49.094;11.900;2023-05-29T00:53:58;5.40;;;4.30;;
11620;SDS011;5866;49.094;11.900;2023-05-29T00:56:28;4.65;;;3.63;;
11620;SDS011;5866;49.094;11.900;2023-05-29T00:58:55;5.75;;;4.60;;
11620;SDS011;5866;49.094;11.900;2023-05-29T01:01:23;7.05;;;3.80;;
11620;SDS011;5866;49.094;11.900;2023-05-29T01:03:51;6.38;;;4.25;;
11620;SDS011;5866;49.094;11.900;2023-05-29T01:06:23;6.20;;;4.00;;
11620;SDS011;5866;49.094;11.900;2023-05-29T01:08:51;8.75;;;4.93;;
11620;SDS011;5866;49.094;11.900;2023-05-29T01:11:20;5.65;;;4.03;;
11620;SDS011;5866;49.094;11.900;2023-05-29T01:13:54;6.15;;;4.47;;
11620;SDS011;5866;49.094;11.900;2023-05-29T01:16:25;6.80;;;4.82;;
11620;SDS011;5866;49.094;11.900;2023-05-29T01:19:00;7.75;;;4.68;;
11620;SDS011;5866;49.094;11.900;2023-05-29T01:21:41;8.98;;;4.78;;
11620;SDS011;5866;49.094;11.900;2023-05-29T01:24:22;5.90;;;5.07;;
11620;SDS011;5866;49.094;11.900;2023-05-29T01:27:01;5.68;;;4.30;;
11620;SDS011;5866;49.094;11.900;2023-05-29T01:29:32;5.72;;;4.30;;
11620;SDS011;5866;49.094;11.900;2023-05-29T01:32:02;5.40;;;4.45;;
11620;SDS011;5866;49.094;11.900;2023-05-29T01:34:30;6.70;;;4.45;;
11620;SDS011;5866;49.094;11.900;2023-05-29T01:36:58;5.30;;;4.53;;
11620;SDS011;5866;49.094;11.900;2023-05-29T01:39:26;5.28;;;4.45;;
11620;SDS011;5866;49.094;11.900;2023-05-29T01:41:54;4.43;;;3.85;;
11620;SDS011;5866;49.094;11.900;2023-05-29T01:44:23;7.20;;;4.63;;
11620;SDS011;5866;49.094;11.900;2023-05-29T01:46:52;8.10;;;4.70;;
11620;SDS011;5866;49.094;11.900;2023-05-29T01:49:20;7.97;;;4.10;;
11620;SDS011;5866;49.094;11.900;2023-05-29T01:51:49;10.63;;;4.20;;
11620;SDS011;5866;49.094;11.900;2023-05-29T01:54:17;5.47;;;4.28;;
11620;SDS011;5866;49.094;11.900;2023-05-29T01:56:44;4.90;;;3.90;;
11620;SDS011;5866;49.094;11.900;2023-05-29T01:59:13;6.07;;;4.15;;
11620;SDS011;5866;49.094;11.900;2023-05-29T02:01:43;5.18;;;4.47;;
11620;SDS011;5866;49.094;11.900;2023-05-29T02:04:10;5.03;;;4.03;;
11620;SDS011;5866;49.094;11.900;2023-05-29T02:06:38;8.20;;;4.50;;
11620;SDS011;5866;49.094;11.900;2023-05-29T02:09:06;7.32;;;4.68;;
11620;SDS011;5866;49.094;11.900;2023-05-29T02:11:33;5.15;;;3.92;;
11620;SDS011;5866;49.094;11.900;2023-05-29T02:14:01;7.32;;;4.00;;
11620;SDS011;5866;49.094;11.900;2023-05-29T02:16:30;7.72;;;4.03;;
11620;SDS011;5866;49.094;11.900;2023-05-29T02:19:01;7.72;;;4.10;;
11620;SDS011;5866;49.094;11.900;2023-05-29T02:21:30;6.63;;;3.90;;
11620;SDS011;5866;49.094;11.900;2023-05-29T02:23:57;7.95;;;4.43;;
11620;SDS011;5866;49.094;11.900;2023-05-29T02:26:25;5.63;;;4.40;;
11620;SDS011;5866;49.094;11.900;2023-05-29T02:28:52;6.88;;;4.50;;
11620;SDS011;5866;49.094;11.900;2023-05-29T02:31:20;6.30;;;4.07;;
11620;SDS011;5866;49.094;11.900;2023-05-29T02:33:48;7.25;;;4.75;;
11620;SDS011;5866;49.094;11.900;2023-05-29T02:36:17;6.07;;;4.10;;
11620;SDS011;5866;49.094;11.900;2023-05-29T02:38:44;4.90;;;3.90;;
11620;SDS011;5866;49.094;11.900;2023-05-29T02:41:12;7.82;;;4.05;;
11620;SDS011;5866;49.094;11.900;2023-05-29T02:43:39;4.90;;;4.40;;
11620;SDS011;5866;49.094;11.900;2023-05-29T02:46:07;6.68;;;4.28;;
11620;SDS011;5866;49.094;11.900;2023-05-29T02:48:34;5.63;;;4.70;;
11620;SDS011;5866;49.094;11.900;2023-05-29T02:51:02;7.70;;;4.00;;
11620;SDS011;5866;49.094;11.900;2023-05-29T02:53:31;4.88;;;4.20;;
11620;SDS011;5866;49.094;11.900;2023-05-29T02:55:58;6.53;;;4.40;;
11620;SDS011;5866;49.094;11.900;2023-05-29T02:58:26;5.00;;;4.22;;
11620;SDS011;5866;49.094;11.900;2023-05-29T03:00:54;4.60;;;4.15;;
11620;SDS011;5866;49.094;11.900;2023-05-29T03:03:22;7.25;;;4.70;;
11620;SDS011;5866;49.094;11.900;2023-05-29T03:05:49;7.05;;;4.28;;
11620;SDS011;5866;49.094;11.900;2023-05-29T03:08:17;4.82;;;3.80;;
11620;SDS011;5866;49.094;11.900;2023-05-29T03:10:46;4.60;;;3.70;;
11620;SDS011;5866;49.094;11.900;2023-05-29T03:13:13;8.93;;;4.95;;
11620;SDS011;5866;49.094;11.900;2023-05-29T03:15:41;6.10;;;4.45;;
11620;SDS011;5866;49.094;11.900;2023-05-29T03:18:09;4.97;;;4.32;;
11620;SDS011;5866;49.094;11.900;2023-05-29T03:20:36;5.18;;;4.00;;
11620;SDS011;5866;49.094;11.900;2023-05-29T03:23:04;5.70;;;4.65;;
11620;SDS011;5866;49.094;11.900;2023-05-29T03:25:32;6.20;;;3.90;;
11620;SDS011;5866;49.094;11.900;2023-05-29T03:28:00;8.38;;;4.10;;
11620;SDS011;5866;49.094;11.900;2023-05-29T03:30:28;6.00;;;4.22;;
11620;SDS011;5866;49.094;11.900;2023-05-29T03:32:56;8.00;;;4.10;;
11620;SDS011;5866;49.094;11.900;2023-05-29T03:35:29;6.07;;;4.25;;
11620;SDS011;5866;49.094;11.900;2023-05-29T03:37:57;5.20;;;4.20;;
11620;SDS011;5866;49.094;11.900;2023-05-29T03:40:24;4.93;;;4.03;;
11620;SDS011;5866;49.094;11.900;2023-05-29T03:42:52;5.38;;;4.53;;
11620;SDS011;5866;49.094;11.900;2023-05-29T03:45:21;6.22;;;4.32;;
11620;SDS011;5866;49.094;11.900;2023-05-29T03:47:48;7.03;;;3.58;;
11620;SDS011;5866;49.094;11.900;2023-05-29T03:50:16;4.75;;;3.78;;
11620;SDS011;5866;49.094;11.900;2023-05-29T03:52:44;6.45;;;3.92;;
11620;SDS011;5866;49.094;11.900;2023-05-29T03:55:12;7.22;;;4.32;;
11620;SDS011;5866;49.094;11.900;2023-05-29T03:57:41;6.20;;;4.00;;
11620;SDS011;5866;49.094;11.900;2023-05-29T04:00:09;4.82;;;4.00;;
11620;SDS011;5866;49.094;11.900;2023-05-29T04:02:39;6.30;;;3.88;;
11620;SDS011;5866;49.094;11.900;2023-05-29T04:05:07;4.82;;;4.20;;
11620;SDS011;5866;49.094;11.900;2023-05-29T04:07:36;7.25;;;3.67;;
11620;SDS011;5866;49.094;11.900;2023-05-29T04:10:05;4.60;;;3.78;;
11620;SDS011;5866;49.094;11.900;2023-05-29T04:12:34;5.82;;;3.70;;
11620;SDS011;5866;49.094;11.900;2023-05-29T04:15:01;6.15;;;4.00;;
11620;SDS011;5866;49.094;11.900;2023-05-29T04:17:30;4.18;;;3.75;;
11620;SDS011;5866;49.094;11.900;2023-05-29T04:19:59;5.32;;;3.53;;
11620;SDS011;5866;49.094;11.900;2023-05-29T04:22:32;6.05;;;3.55;;
11620;SDS011;5866;49.094;11.900;2023-05-29T04:24:59;4.07;;;3.53;;
11620;SDS011;5866;49.094;11.900;2023-05-29T04:27:27;5.90;;;3.97;;
11620;SDS011;5866;49.094;11.900;2023-05-29T04:29:54;5.60;;;4.00;;
11620;SDS011;5866;49.094;11.900;2023-05-29T04:32:22;5.55;;;3.78;;
11620;SDS011;5866;49.094;11.900;2023-05-29T04:34:49;4.53;;;3.50;;
11620;SDS011;5866;49.094;11.900;2023-05-29T04:37:19;4.88;;;3.85;;
11620;SDS011;5866;49.094;11.900;2023-05-29T04:39:56;5.50;;;3.47;;
11620;SDS011;5866;49.094;11.900;2023-05-29T04:42:23;7.05;;;3.45;;
11620;SDS011;5866;49.094;11.900;2023-05-29T04:44:51;5.95;;;4.00;;
11620;SDS011;5866;49.094;11.900;2023-05-29T04:47:19;5.60;;;3.63;;
11620;SDS011;5866;49.094;11.900;2023-05-29T04:49:48;4.03;;;3.45;;
11620;SDS011;5866;49.094;11.900;2023-05-29T04:52:16;6.13;;;3.50;;
11620;SDS011;5866;49.094;11.900;2023-05-29T04:54:45;5.25;;;3.67;;
11620;SDS011;5866;49.094;11.900;2023-05-29T04:57:12;5.85;;;3.75;;
11620;SDS011;5866;49.094;11.900;2023-05-29T04:59:40;4.38;;;3.85;;
11620;SDS011;5866;49.094;11.900;2023-05-29T05:02:08;6.03;;;3.38;;
11620;SDS011;5866;49.094;11.900;2023-05-29T05:04:35;4.80;;;3.25;;
11620;SDS011;5866;49.094;11.900;2023-05-29T05:07:04;6.80;;;3.70;;
11620;SDS011;5866;49.094;11.900;2023-05-29T05:09:32;5.18;;;3.40;;
11620;SDS011;5866;49.094;11.900;2023-05-29T05:12:01;9.07;;;3.60;;
11620;SDS011;5866;49.094;11.900;2023-05-29T05:14:28;5.10;;;3.63;;
11620;SDS011;5866;49.094;11.900;2023-05-29T05:16:56;8.60;;;3.38;;
11620;SDS011;5866;49.094;11.900;2023-05-29T05:19:24;4.22;;;3.42;;
11620;SDS011;5866;49.094;11.900;2023-05-29T05:21:51;5.55;;;3.35;;
11620;SDS011;5866;49.094;11.900;2023-05-29T05:24:19;4.40;;;3.47;;
11620;SDS011;5866;49.094;11.900;2023-05-29T05:26:46;4.35;;;3.58;;
11620;SDS011;5866;49.094;11.900;2023-05-29T05:29:15;4.68;;;3.22;;
11620;SDS011;5866;49.094;11.900;2023-05-29T05:31:43;6.43;;;3.10;;
11620;SDS011;5866;49.094;11.900;2023-05-29T05:34:10;5.03;;;3.58;;
11620;SDS011;5866;49.094;11.900;2023-05-29T05:36:38;4.68;;;3.30;;
11620;SDS011;5866;49.094;11.900;2023-05-29T05:39:05;3.50;;;3.20;;
11620;SDS011;5866;49.094;11.900;2023-05-29T05:41:33;4.50;;;3.50;;
11620;SDS011;5866;49.094;11.900;2023-05-29T05:44:01;6.80;;;3.22;;
11620;SDS011;5866;49.094;11.900;2023-05-29T05:46:30;5.85;;;3.10;;
11620;SDS011;5866;49.094;11.900;2023-05-29T05:48:57;5.07;;;3.55;;
11620;SDS011;5866;49.094;11.900;2023-05-29T05:51:27;4.03;;;3.40;;
11620;SDS011;5866;49.094;11.900;2023-05-29T05:53:54;3.65;;;3.10;;
11620;SDS011;5866;49.094;11.900;2023-05-29T05:56:22;3.80;;;3.10;;
11620;SDS011;5866;49.094;11.900;2023-05-29T05:58:49;5.55;;;3.65;;
11620;SDS011;5866;49.094;11.900;2023-05-29T06:01:17;6.05;;;3.65;;
11620;SDS011;5866;49.094;11.900;2023-05-29T06:03:46;3.65;;;3.22;;
11620;SDS011;5866;49.094;11.900;2023-05-29T06:06:13;4.38;;;3.50;;
11620;SDS011;5866;49.094;11.900;2023-05-29T06:08:43;4.72;;;3.30;;
11620;SDS011;5866;49.094;11.900;2023-05-29T06:11:11;4.35;;;3.40;;
11620;SDS011;5866;49.094;11.900;2023-05-29T06:13:39;4.07;;;3.28;;
11620;SDS011;5866;49.094;11.900;2023-05-29T06:16:06;4.97;;;3.25;;
11620;SDS011;5866;49.094;11.900;2023-05-29T06:18:34;6.55;;;3.38;;
11620;SDS011;5866;49.094;11.900;2023-05-29T06:21:03;6.35;;;3.13;;
11620;SDS011;5866;49.094;11.900;2023-05-29T06:23:32;4.32;;;3.20;;
11620;SDS011;5866;49.094;11.900;2023-05-29T06:25:59;4.72;;;3.47;;
11620;SDS011;5866;49.094;11.900;2023-05-29T06:28:27;4.18;;;3.50;;
11620;SDS011;5866;49.094;11.900;2023-05-29T06:30:54;4.13;;;3.17;;
11620;SDS011;5866;49.094;11.900;2023-05-29T06:33:22;4.45;;;3.22;;
11620;SDS011;5866;49.094;11.900;2023-05-29T06:35:50;4.10;;;3.28;;
11620;SDS011;5866;49.094;11.900;2023-05-29T06:38:19;3.58;;;3.28;;
11620;SDS011;5866;49.094;11.900;2023-05-29T06:40:46;4.45;;;3.30;;
11620;SDS011;5866;49.094;11.900;2023-05-29T06:43:14;3.80;;;3.15;;
11620;SDS011;5866;49.094;11.900;2023-05-29T06:45:41;5.32;;;3.22;;
11620;SDS011;5866;49.094;11.900;2023-05-29T06:48:09;5.80;;;3.45;;
11620;SDS011;5866;49.094;11.900;2023-05-29T06:50:37;3.95;;;3.38;;
11620;SDS011;5866;49.094;11.900;2023-05-29T06:53:04;3.00;;;2.70;;
11620;SDS011;5866;49.094;11.900;2023-05-29T06:55:33;5.20;;;2.85;;
11620;SDS011;5866;49.094;11.900;2023-05-29T06:58:01;6.32;;;3.15;;
11620;SDS011;5866;49.094;11.900;2023-05-29T07:00:28;7.35;;;3.33;;
11620;SDS011;5866;49.094;11.900;2023-05-29T07:02:56;4.35;;;3.10;;
11620;SDS011;5866;49.094;11.900;2023-05-29T07:05:24;3.10;;;2.80;;
11620;SDS011;5866;49.094;11.900;2023-05-29T07:07:53;3.85;;;3.03;;
11620;SDS011;5866;49.094;11.900;2023-05-29T07:10:21;7.10;;;3.33;;
11620;SDS011;5866;49.094;11.900;2023-05-29T07:12:50;3.78;;;3.17;;
11620;SDS011;5866;49.094;11.900;2023-05-29T07:15:17;3.83;;;3.22;;
11620;SDS011;5866;49.094;11.900;2023-05-29T07:17:45;3.63;;;3.13;;
11620;SDS011;5866;49.094;11.900;2023-05-29T07:20:12;6.88;;;3.03;;
11620;SDS011;5866;49.094;11.900;2023-05-29T07:22:41;7.72;;;3.22;;
11620;SDS011;5866;49.094;11.900;2023-05-29T07:25:09;4.25;;;3.25;;
11620;SDS011;5866;49.094;11.900;2023-05-29T07:27:39;3.40;;;2.95;;
11620;SDS011;5866;49.094;11.900;2023-05-29T07:30:08;3.53;;;3.22;;
11620;SDS011;5866;49.094;11.900;2023-05-29T07:32:37;5.40;;;3.22;;
11620;SDS011;5866;49.094;11.900;2023-05-29T07:35:04;3.70;;;3.13;;
11620;SDS011;5866;49.094;11.900;2023-05-29T07:37:33;4.63;;;3.15;;
11620;SDS011;5866;49.094;11.900;2023-05-29T07:40:01;5.35;;;3.08;;
11620;SDS011;5866;49.094;11.900;2023-05-29T07:42:32;5.35;;;3.35;;
11620;SDS011;5866;49.094;11.900;2023-05-29T07:44:59;3.50;;;3.00;;
11620;SDS011;5866;49.094;11.900;2023-05-29T07:47:28;3.45;;;2.83;;
11620;SDS011;5866;49.094;11.900;2023-05-29T07:49:56;6.28;;;3.08;;
11620;SDS011;5866;49.094;11.900;2023-05-29T07:52:23;3.70;;;2.78;;
11620;SDS011;5866;49.094;11.900;2023-05-29T07:54:51;6.38;;;4.10;;
11620;SDS011;5866;49.094;11.900;2023-05-29T07:57:19;3.47;;;2.90;;
11620;SDS011;5866;49.094;11.900;2023-05-29T07:59:47;3.20;;;2.90;;
11620;SDS011;5866;49.094;11.900;2023-05-29T08:02:15;3.30;;;3.00;;
11620;SDS011;5866;49.094;11.900;2023-05-29T08:04:44;4.15;;;3.20;;
11620;SDS011;5866;49.094;11.900;2023-05-29T08:07:13;5.55;;;3.20;;
11620;SDS011;5866;49.094;11.900;2023-05-29T08:09:40;3.80;;;3.08;;
11620;SDS011;5866;49.094;11.900;2023-05-29T08:12:08;3.97;;;3.33;;
11620;SDS011;5866;49.094;11.900;2023-05-29T08:14:35;5.05;;;3.08;;
11620;SDS011;5866;49.094;11.900;2023-05-29T08:17:03;6.47;;;2.90;;
11620;SDS011;5866;49.094;11.900;2023-05-29T08:19:31;4.35;;;3.20;;
11620;SDS011;5866;49.094;11.900;2023-05-29T08:21:59;3.70;;;3.03;;
11620;SDS011;5866;49.094;11.900;2023-05-29T08:24:27;3.58;;;3.10;;
11620;SDS011;5866;49.094;11.900;2023-05-29T08:26:55;4.57;;;3.03;;
11620;SDS011;5866;49.094;11.900;2023-05-29T08:29:22;3.88;;;3.20;;
11620;SDS011;5866;49.094;11.900;2023-05-29T08:31:50;5.03;;;3.33;;
11620;SDS011;5866;49.094;11.900;2023-05-29T08:34:17;4.18;;;3.00;;
11620;SDS011;5866;49.094;11.900;2023-05-29T08:36:45;3.67;;;2.95;;
11620;SDS011;5866;49.094;11.900;2023-05-29T08:39:14;4.75;;;3.17;;
11620;SDS011;5866;49.094;11.900;2023-05-29T08:41:44;3.78;;;2.78;;
11620;SDS011;5866;49.094;11.900;2023-05-29T08:44:16;5.75;;;2.95;;
11620;SDS011;5866;49.094;11.900;2023-05-29T08:46:50;4.13;;;3.30;;
11620;SDS011;5866;49.094;11.900;2023-05-29T08:49:22;6.38;;;3.33;;
11620;SDS011;5866;49.094;11.900;2023-05-29T08:52:02;6.13;;;3.38;;
11620;SDS011;5866;49.094;11.900;2023-05-29T08:54:37;3.38;;;2.70;;
11620;SDS011;5866;49.094;11.900;2023-05-29T08:57:07;6.90;;;3.20;;
11620;SDS011;5866;49.094;11.900;2023-05-29T08:59:35;3.60;;;2.92;;
11620;SDS011;5866;49.094;11.900;2023-05-29T09:02:04;4.22;;;2.97;;
11620;SDS011;5866;49.094;11.900;2023-05-29T09:04:31;4.35;;;2.72;;
11620;SDS011;5866;49.094;11.900;2023-05-29T09:07:00;3.13;;;2.80;;
11620;SDS011;5866;49.094;11.900;2023-05-29T09:09:29;3.83;;;2.72;;
11620;SDS011;5866;49.094;11.900;2023-05-29T09:11:59;5.18;;;3.20;;
11620;SDS011;5866;49.094;11.900;2023-05-29T09:14:32;5.05;;;2.88;;
11620;SDS011;5866;49.094;11.900;2023-05-29T09:17:02;3.40;;;2.65;;
11620;SDS011;5866;49.094;11.900;2023-05-29T09:19:30;5.03;;;3.20;;
11620;SDS011;5866;49.094;11.900;2023-05-29T09:22:01;4.47;;;3.35;;
11620;SDS011;5866;49.094;11.900;2023-05-29T09:24:30;3.28;;;2.97;;
11620;SDS011;5866;49.094;11.900;2023-05-29T09:27:01;4.03;;;2.97;;
11620;SDS011;5866;49.094;11.900;2023-05-29T09:29:30;2.55;;;2.30;;
11620;SDS011;5866;49.094;11.900;2023-05-29T09:31:58;6.38;;;2.70;;
11620;SDS011;5866;49.094;11.900;2023-05-29T09:34:30;3.30;;;2.60;;
11620;SDS011;5866;49.094;11.900;2023-05-29T09:37:00;3.95;;;2.70;;
11620;SDS011;5866;49.094;11.900;2023-05-29T09:39:34;3.65;;;2.85;;
11620;SDS011;5866;49.094;11.900;2023-05-29T09:42:13;4.50;;;3.25;;
11620;SDS011;5866;49.094;11.900;2023-05-29T09:44:42;2.83;;;2.58;;
11620;SDS011;5866;49.094;11.900;2023-05-29T09:47:13;4.63;;;2.88;;
11620;SDS011;5866;49.094;11.900;2023-05-29T09:49:41;2.97;;;2.42;;
11620;SDS011;5866;49.094;11.900;2023-05-29T09:52:10;3.90;;;2.92;;
11620;SDS011;5866;49.094;11.900;2023-05-29T09:54:41;3.25;;;2.60;;
11620;SDS011;5866;49.094;11.900;2023-05-29T09:57:13;3.15;;;2.85;;
11620;SDS011;5866;49.094;11.900;2023-05-29T09:59:41;3.05;;;2.75;;
11620;SDS011;5866;49.094;11.900;2023-05-29T10:02:11;3.97;;;3.33;;
11620;SDS011;5866;49.094;11.900;2023-05-29T10:04:40;3.47;;;3.00;;
11620;SDS011;5866;49.094;11.900;2023-05-29T10:07:08;3.42;;;3.00;;
11620;SDS011;5866;49.094;11.900;2023-05-29T10:09:38;3.50;;;2.88;;
11620;SDS011;5866;49.094;11.900;2023-05-29T10:12:09;4.05;;;2.47;;
11620;SDS011;5866;49.094;11.900;2023-05-29T10:14:40;2.95;;;2.65;;
11620;SDS011;5866;49.094;11.900;2023-05-29T10:17:10;3.35;;;2.70;;
11620;SDS011;5866;49.094;11.900;2023-05-29T10:19:41;4.03;;;2.80;;
11620;SDS011;5866;49.094;11.900;2023-05-29T10:22:10;2.80;;;2.40;;
11620;SDS011;5866;49.094;11.900;2023-05-29T10:24:38;3.55;;;3.25;;
11620;SDS011;5866;49.094;11.900;2023-05-29T10:27:06;3.63;;;2.72;;
11620;SDS011;5866;49.094;11.900;2023-05-29T10:29:34;3.95;;;2.53;;
11620;SDS011;5866;49.094;11.900;2023-05-29T10:32:07;3.17;;;2.63;;
11620;SDS011;5866;49.094;11.900;2023-05-29T10:34:48;3.30;;;2.38;;
11620;SDS011;5866;49.094;11.900;2023-05-29T10:37:27;3.42;;;2.38;;
11620;SDS011;5866;49.094;11.900;2023-05-29T10:40:04;4.95;;;2.97;;
11620;SDS011;5866;49.094;11.900;2023-05-29T10:42:41;4.07;;;3.00;;
11620;SDS011;5866;49.094;11.900;2023-05-29T10:51:06;2.67;;;2.40;;
11620;SDS011;5866;49.094;11.900;2023-05-29T10:53:34;3.22;;;2.92;;
11620;SDS011;5866;49.094;11.900;2023-05-29T10:56:13;3.58;;;2.50;;
11620;SDS011;5866;49.094;11.900;2023-05-29T10:58:42;3.10;;;2.42;;
11620;SDS011;5866;49.094;11.900;2023-05-29T11:01:10;3.30;;;2.40;;
11620;SDS011;5866;49.094;11.900;2023-05-29T11:03:39;4.55;;;3.85;;
11620;SDS011;5866;49.094;11.900;2023-05-29T11:06:08;14.70;;;2.90;;
11620;SDS011;5866;49.094;11.900;2023-05-29T11:08:46;3.88;;;2.35;;
11620;SDS011;5866;49.094;11.900;2023-05-29T11:11:14;4.18;;;2.65;;
11620;SDS011;5866;49.094;11.900;2023-05-29T11:13:51;2.85;;;2.40;;
11620;SDS011;5866;49.094;11.900;2023-05-29T11:16:20;7.32;;;2.60;;
11620;SDS011;5866;49.094;11.900;2023-05-29T11:19:05;2.95;;;2.50;;
11620;SDS011;5866;49.094;11.900;2023-05-29T11:21:34;3.17;;;2.65;;
11620;SDS011;5866;49.094;11.900;2023-05-29T11:24:21;2.45;;;2.22;;
11620;SDS011;5866;49.094;11.900;2023-05-29T11:26:50;2.55;;;2.28;;
11620;SDS011;5866;49.094;11.900;2023-05-29T11:29:21;3.55;;;2.80;;
11620;SDS011;5866;49.094;11.900;2023-05-29T11:31:49;3.78;;;2.42;;
11620;SDS011;5866;49.094;11.900;2023-05-29T11:34:26;4.72;;;2.58;;
11620;SDS011;5866;49.094;11.900;2023-05-29T11:36:56;5.00;;;2.97;;
11620;SDS011;5866;49.094;11.900;2023-05-29T11:39:26;3.55;;;3.10;;
11620;SDS011;5866;49.094;11.900;2023-05-29T11:41:54;3.97;;;2.67;;
11620;SDS011;5866;49.094;11.900;2023-05-29T11:44:23;4.22;;;2.60;;
11620;SDS011;5866;49.094;11.900;2023-05-29T11:46:58;3.63;;;2.50;;
11620;SDS011;5866;49.094;11.900;2023-05-29T11:49:29;3.40;;;2.33;;
11620;SDS011;5866;49.094;11.900;2023-05-29T11:52:05;4.97;;;2.92;;
11620;SDS011;5866;49.094;11.900;2023-05-29T11:54:41;3.17;;;2.30;;
11620;SDS011;5866;49.094;11.900;2023-05-29T11:57:17;3.47;;;2.67;;
11620;SDS011;5866;49.094;11.900;2023-05-29T11:59:45;2.33;;;2.13;;
11620;SDS011;5866;49.094;11.900;2023-05-29T12:02:12;3.20;;;2.90;;
11620;SDS011;5866;49.094;11.900;2023-05-29T12:04:41;4.82;;;2.88;;
11620;SDS011;5866;49.094;11.900;2023-05-29T12:07:18;3.65;;;2.58;;
11620;SDS011;5866;49.094;11.900;2023-05-29T12:09:46;4.82;;;2.90;;
11620;SDS011;5866;49.094;11.900;2023-05-29T12:12:19;4.07;;;2.75;;
11620;SDS011;5866;49.094;11.900;2023-05-29T12:14:49;5.88;;;2.67;;
11620;SDS011;5866;49.094;11.900;2023-05-29T12:17:17;2.50;;;2.30;;
11620;SDS011;5866;49.094;11.900;2023-05-29T12:19:46;2.70;;;2.50;;
11620;SDS011;5866;49.094;11.900;2023-05-29T12:22:13;2.40;;;2.20;;
11620;SDS011;5866;49.094;11.900;2023-05-29T12:24:41;3.40;;;2.03;;
11620;SDS011;5866;49.094;11.900;2023-05-29T12:27:09;2.50;;;2.30;;
11620;SDS011;5866;49.094;11.900;2023-05-29T12:29:37;3.33;;;2.40;;
11620;SDS011;5866;49.094;11.900;2023-05-29T12:32:08;4.13;;;2.40;;
11620;SDS011;5866;49.094;11.900;2023-05-29T12:34:37;2.50;;;2.30;;
11620;SDS011;5866;49.094;11.900;2023-05-29T12:37:08;2.80;;;2.50;;
11620;SDS011;5866;49.094;11.900;2023-05-29T12:39:40;2.67;;;2.40;;
11620;SDS011;5866;49.094;11.900;2023-05-29T12:42:08;2.60;;;2.28;;
11620;SDS011;5866;49.094;11.900;2023-05-29T12:44:37;2.80;;;2.35;;
11620;SDS011;5866;49.094;11.900;2023-05-29T12:47:04;3.20;;;2.25;;
11620;SDS011;5866;49.094;11.900;2023-05-29T12:49:35;3.38;;;2.70;;
11620;SDS011;5866;49.094;11.900;2023-05-29T12:52:04;2.65;;;2.33;;
11620;SDS011;5866;49.094;11.900;2023-05-29T12:54:34;3.05;;;2.42;;
11620;SDS011;5866;49.094;11.900;2023-05-29T12:57:02;4.60;;;2.90;;
11620;SDS011;5866;49.094;11.900;2023-05-29T12:59:29;3.10;;;2.42;;
11620;SDS011;5866;49.094;11.900;2023-05-29T13:01:57;4.78;;;2.50;;
11620;SDS011;5866;49.094;11.900;2023-05-29T13:04:25;2.45;;;2.25;;
11620;SDS011;5866;49.094;11.900;2023-05-29T13:06:53;2.50;;;2.10;;
11620;SDS011;5866;49.094;11.900;2023-05-29T13:09:20;2.78;;;2.58;;
11620;SDS011;5866;49.094;11.900;2023-05-29T13:11:49;2.58;;;2.38;;
11620;SDS011;5866;49.094;11.900;2023-05-29T13:14:19;2.55;;;2.35;;
11620;SDS011;5866;49.094;11.900;2023-05-29T13:16:46;2.75;;;2.25;;
11620;SDS011;5866;49.094;11.900;2023-05-29T13:19:15;2.67;;;2.40;;
11620;SDS011;5866;49.094;11.900;2023-05-29T13:21:42;2.95;;;2.35;;
11620;SDS011;5866;49.094;11.900;2023-05-29T13:24:14;4.28;;;2.60;;
11620;SDS011;5866;49.094;11.900;2023-05-29T13:26:41;2.55;;;2.35;;
11620;SDS011;5866;49.094;11.900;2023-05-29T13:29:10;2.50;;;2.25;;
11620;SDS011;5866;49.094;11.900;2023-05-29T13:31:38;2.65;;;2.45;;
11620;SDS011;5866;49.094;11.900;2023-05-29T13:34:05;2.80;;;2.38;;
11620;SDS011;5866;49.094;11.900;2023-05-29T13:36:33;2.90;;;2.10;;
11620;SDS011;5866;49.094;11.900;2023-05-29T13:39:02;2.97;;;2.33;;
11620;SDS011;5866;49.094;11.900;2023-05-29T13:41:30;4.40;;;2.60;;
11620;SDS011;5866;49.094;11.900;2023-05-29T13:43:57;2.47;;;2.28;;
11620;SDS011;5866;49.094;11.900;2023-05-29T13:46:27;3.17;;;2.30;;
11620;SDS011;5866;49.094;11.900;2023-05-29T13:48:54;3.63;;;2.53;;
11620;SDS011;5866;49.094;11.900;2023-05-29T13:51:22;3.72;;;2.17;;
11620;SDS011;5866;49.094;11.900;2023-05-29T13:53:49;3.78;;;2.78;;
11620;SDS011;5866;49.094;11.900;2023-05-29T13:56:17;2.75;;;2.22;;
11620;SDS011;5866;49.094;11.900;2023-05-29T13:58:44;5.60;;;2.35;;
11620;SDS011;5866;49.094;11.900;2023-05-29T14:01:12;2.90;;;2.25;;
11620;SDS011;5866;49.094;11.900;2023-05-29T14:03:42;3.67;;;2.20;;
11620;SDS011;5866;49.094;11.900;2023-05-29T14:06:09;3.65;;;2.03;;
11620;SDS011;5866;49.094;11.900;2023-05-29T14:08:37;3.60;;;2.40;;
11620;SDS011;5866;49.094;11.900;2023-05-29T14:11:05;3.72;;;2.40;;
11620;SDS011;5866;49.094;11.900;2023-05-29T14:13:32;2.40;;;2.20;;
11620;SDS011;5866;49.094;11.900;2023-05-29T14:16:00;4.35;;;2.42;;
11620;SDS011;5866;49.094;11.900;2023-05-29T14:18:27;3.97;;;2.20;;
11620;SDS011;5866;49.094;11.900;2023-05-29T14:20:56;4.72;;;2.58;;
11620;SDS011;5866;49.094;11.900;2023-05-29T14:23:24;2.90;;;2.60;;
11620;SDS011;5866;49.094;11.900;2023-05-29T14:25:51;7.25;;;2.40;;
11620;SDS011;5866;49.094;11.900;2023-05-29T14:28:19;3.78;;;2.85;;
11620;SDS011;5866;49.094;11.900;2023-05-29T14:30:47;2.95;;;2.20;;
11620;SDS011;5866;49.094;11.900;2023-05-29T14:33:14;2.88;;;2.20;;
11620;SDS011;5866;49.094;11.900;2023-05-29T14:35:42;2.47;;;2.20;;
11620;SDS011;5866;49.094;11.900;2023-05-29T14:38:11;3.60;;;2.20;;
11620;SDS011;5866;49.094;11.900;2023-05-29T14:40:38;3.92;;;2.38;;
11620;SDS011;5866;49.094;11.900;2023-05-29T14:43:06;3.75;;;2.60;;
11620;SDS011;5866;49.094;11.900;2023-05-29T14:45:33;3.08;;;2.42;;
11620;SDS011;5866;49.094;11.900;2023-05-29T14:48:02;2.80;;;2.60;;
11620;SDS011;5866;49.094;11.900;2023-05-29T14:50:31;4.57;;;2.63;;
11620;SDS011;5866;49.094;11.900;2023-05-29T14:52:58;5.10;;;2.63;;
11620;SDS011;5866;49.094;11.900;2023-05-29T14:55:27;3.80;;;2.65;;
11620;SDS011;5866;49.094;11.900;2023-05-29T14:57:57;2.97;;;2.40;;
11620;SDS011;5866;49.094;11.900;2023-05-29T15:00:24;3.38;;;2.88;;
11620;SDS011;5866;49.094;11.900;2023-05-29T15:02:52;3.45;;;2.63;;
11620;SDS011;5866;49.094;11.900;2023-05-29T15:05:20;2.90;;;2.53;;